createdAt,value
2022-12-22T00:00:42.236Z,33.30
2022-12-22T00:03:32.780Z,34.03
2022-12-22T00:06:20.277Z,34.13
2022-12-22T00:09:08.903Z,34.13
2022-12-22T00:11:59.716Z,34.38
2022-12-22T00:14:44.834Z,34.90
2022-12-22T00:17:41.017Z,34.92
2022-12-22T00:20:39.354Z,33.80
2022-12-22T00:23:33.621Z,31.55
2022-12-22T00:26:19.076Z,33.30
2022-12-22T00:29:07.661Z,34.35
2022-12-22T00:31:53.085Z,34.15
2022-12-22T00:34:40.236Z,34.72
2022-12-22T00:37:30.664Z,35.05
2022-12-22T00:40:19.736Z,34.70
2022-12-22T00:43:07.697Z,34.63
2022-12-22T00:45:56.499Z,35.65
2022-12-22T00:48:45.179Z,35.33
2022-12-22T00:51:31.248Z,34.47
2022-12-22T00:54:18.697Z,34.10
2022-12-22T00:57:06.209Z,36.22
2022-12-22T00:59:54.852Z,36.53
2022-12-22T01:02:40.433Z,35.85
2022-12-22T01:05:26.642Z,34.88
2022-12-22T01:08:12.308Z,36.40
2022-12-22T01:10:57.442Z,37.13
2022-12-22T01:13:46.663Z,36.88
2022-12-22T01:16:35.659Z,37.65
2022-12-22T01:19:21.246Z,38.25
2022-12-22T01:22:06.553Z,37.80
2022-12-22T01:24:54.297Z,38.13
2022-12-22T01:27:42.571Z,36.70
2022-12-22T01:30:29.028Z,38.80
2022-12-22T01:33:14.566Z,39.65
2022-12-22T01:36:00.897Z,38.65
2022-12-22T01:38:48.272Z,39.10
2022-12-22T01:41:38.484Z,40.67
2022-12-22T01:44:34.686Z,38.95
2022-12-22T01:47:48.132Z,39.15
2022-12-22T01:50:46.046Z,39.92
2022-12-22T01:53:37.324Z,38.70
2022-12-22T01:56:23.228Z,39.25
2022-12-22T01:59:14.016Z,40.17
2022-12-22T02:02:00.522Z,40.38
2022-12-22T02:04:53.006Z,40.60
2022-12-22T02:08:05.790Z,38.58
2022-12-22T02:11:30.735Z,39.85
2022-12-22T02:14:34.868Z,37.65
2022-12-22T02:17:43.043Z,38.92
2022-12-22T02:20:53.435Z,37.53
2022-12-22T02:23:47.998Z,37.90
2022-12-22T02:26:45.982Z,35.60
2022-12-22T02:29:33.936Z,37.30
2022-12-22T02:32:22.858Z,38.33
2022-12-22T02:35:08.104Z,35.67
2022-12-22T02:38:10.896Z,34.72
2022-12-22T02:41:02.453Z,37.25
2022-12-22T02:44:09.531Z,39.47
2022-12-22T02:47:15.992Z,37.25
2022-12-22T02:50:33.032Z,37.72
2022-12-22T02:53:19.807Z,38.63
2022-12-22T02:56:07.906Z,39.00
2022-12-22T02:58:56.821Z,37.55
2022-12-22T03:01:42.318Z,39.30
2022-12-22T03:04:27.849Z,37.63
2022-12-22T03:07:13.538Z,37.83
2022-12-22T03:09:58.697Z,38.60
2022-12-22T03:12:46.429Z,38.97
2022-12-22T03:15:31.797Z,37.15
2022-12-22T03:18:26.002Z,39.20
2022-12-22T03:21:14.288Z,38.83
2022-12-22T03:24:02.555Z,40.60
2022-12-22T03:26:30.529Z,41.35
2022-12-22T03:28:57.402Z,40.28
2022-12-22T03:31:28.844Z,41.00
2022-12-22T03:33:55.651Z,38.90
2022-12-22T03:36:24.900Z,39.70
2022-12-22T03:38:53.777Z,40.35
2022-12-22T03:41:39.042Z,39.13
2022-12-22T03:44:24.480Z,39.63
2022-12-22T03:46:53.986Z,38.90
2022-12-22T03:49:26.221Z,38.80
2022-12-22T03:51:56.680Z,37.25
2022-12-22T03:54:27.031Z,37.28
2022-12-22T03:56:57.491Z,37.28
2022-12-22T03:59:24.235Z,38.50
2022-12-22T04:01:53.402Z,36.85
2022-12-22T04:04:25.060Z,36.85
2022-12-22T04:06:54.504Z,37.53
2022-12-22T04:09:24.924Z,36.65
2022-12-22T04:12:10.447Z,35.72
2022-12-22T04:14:39.524Z,35.97
2022-12-22T04:17:09.703Z,34.80
2022-12-22T04:19:38.714Z,34.95
2022-12-22T04:22:07.696Z,34.28
2022-12-22T04:24:39.072Z,34.15
2022-12-22T04:27:08.890Z,31.05
2022-12-22T04:29:37.801Z,29.30
2022-12-22T04:32:04.677Z,28.58
2022-12-22T04:34:33.930Z,29.35
2022-12-22T04:37:12.995Z,31.00
2022-12-22T04:39:45.858Z,30.70
2022-12-22T04:42:14.811Z,29.73
2022-12-22T04:44:46.771Z,28.83
2022-12-22T04:47:16.827Z,29.17
2022-12-22T04:49:46.158Z,28.45
2022-12-22T04:52:12.986Z,26.67
2022-12-22T04:54:41.919Z,26.58
2022-12-22T04:57:09.723Z,25.40
2022-12-22T04:59:41.721Z,24.85
2022-12-22T05:02:09.551Z,25.10
2022-12-22T05:04:36.351Z,22.83
2022-12-22T05:07:03.496Z,22.05
2022-12-22T05:09:32.571Z,20.35
2022-12-22T05:12:21.893Z,23.75
2022-12-22T05:14:48.646Z,22.08
2022-12-22T05:17:15.583Z,22.40
2022-12-22T05:19:44.625Z,23.67
2022-12-22T05:22:16.845Z,23.10
2022-12-22T05:24:43.567Z,21.98
2022-12-22T05:27:12.143Z,23.45
2022-12-22T05:29:38.877Z,21.48
2022-12-22T05:32:10.577Z,21.77
2022-12-22T05:37:14.043Z,20.67
2022-12-22T05:39:40.799Z,20.42
2022-12-22T05:42:07.554Z,21.00
2022-12-22T05:44:34.292Z,20.23
2022-12-22T05:47:03.925Z,19.35
2022-12-22T05:49:32.888Z,19.92
2022-12-22T05:51:59.627Z,18.65
2022-12-22T05:54:31.283Z,20.63
2022-12-22T05:59:27.036Z,19.63
2022-12-22T06:01:56.621Z,18.52
2022-12-22T06:04:25.693Z,18.15
2022-12-22T06:06:55.122Z,16.60
2022-12-22T06:09:24.892Z,17.10
2022-12-22T06:11:56.235Z,17.38
2022-12-22T06:14:28.250Z,19.40
2022-12-22T06:16:55.216Z,17.85
2022-12-22T06:19:27.165Z,17.83
2022-12-22T06:21:53.917Z,18.50
2022-12-22T06:24:23.758Z,18.77
2022-12-22T06:26:50.665Z,16.77
2022-12-22T06:29:19.833Z,16.75
2022-12-22T06:31:52.289Z,15.35
2022-12-22T06:34:19.298Z,15.35
2022-12-22T06:36:46.845Z,15.43
2022-12-22T06:39:17.128Z,14.57
2022-12-22T06:42:05.073Z,13.63
2022-12-22T06:44:33.931Z,13.65
2022-12-22T06:47:03.739Z,13.32
2022-12-22T06:49:32.775Z,14.02
2022-12-22T06:52:02.395Z,14.27
2022-12-22T06:54:31.442Z,14.38
2022-12-22T06:56:58.234Z,14.35
2022-12-22T06:59:27.860Z,13.18
2022-12-22T07:01:57.201Z,14.02
2022-12-22T07:04:23.999Z,13.43
2022-12-22T07:06:56.392Z,13.13
2022-12-22T07:09:25.779Z,13.43
2022-12-22T07:11:55.137Z,13.20
2022-12-22T07:14:24.186Z,12.77
2022-12-22T07:16:55.835Z,11.82
2022-12-22T07:19:22.654Z,11.30
2022-12-22T07:21:51.053Z,10.75
2022-12-22T07:24:23.167Z,11.10
2022-12-22T07:26:52.816Z,11.10
2022-12-22T07:29:22.863Z,10.77
2022-12-22T07:31:49.666Z,11.43
2022-12-22T07:34:20.906Z,13.35
2022-12-22T07:36:47.925Z,15.18
2022-12-22T07:39:14.804Z,16.88
2022-12-22T07:41:59.970Z,18.50
2022-12-22T07:44:26.871Z,17.13
2022-12-22T07:46:59.113Z,20.25
2022-12-22T07:49:44.438Z,20.02
2022-12-22T07:52:11.139Z,19.92
2022-12-22T07:54:41.720Z,21.73
2022-12-22T07:57:11.472Z,21.73
2022-12-22T07:59:40.481Z,19.90
2022-12-22T08:02:12.125Z,19.60
2022-12-22T08:07:18.091Z,18.67
2022-12-22T08:09:45.100Z,17.23
2022-12-22T08:12:14.095Z,16.08
2022-12-22T08:14:45.841Z,13.55
2022-12-22T08:19:41.786Z,9.30
2022-12-22T08:22:08.734Z,9.27
2022-12-22T08:24:37.818Z,8.10
2022-12-22T08:27:13.804Z,8.10
2022-12-22T08:29:49.077Z,8.23
2022-12-22T08:32:18.572Z,7.72
2022-12-22T08:34:45.520Z,8.25
2022-12-22T08:37:16.381Z,7.90
2022-12-22T08:39:48.319Z,8.07
2022-12-22T08:42:18.411Z,8.35
2022-12-22T08:44:47.262Z,7.85
2022-12-22T08:47:17.872Z,7.75
2022-12-22T08:49:47.005Z,8.65
2022-12-22T08:52:18.597Z,8.70
2022-12-22T08:54:48.335Z,8.88
2022-12-22T08:57:17.400Z,9.18
2022-12-22T08:59:44.208Z,9.18
2022-12-22T09:02:10.990Z,9.55
2022-12-22T09:04:37.890Z,9.82
2022-12-22T09:07:05.240Z,9.57
2022-12-22T09:09:33.350Z,10.23
2022-12-22T09:12:02.241Z,11.00
2022-12-22T09:14:30.436Z,11.07
2022-12-22T09:16:57.403Z,11.38
2022-12-22T09:19:24.200Z,10.90
2022-12-22T09:21:53.284Z,11.57
2022-12-22T09:24:20.036Z,11.65
2022-12-22T09:26:47.118Z,11.98
2022-12-22T09:29:16.904Z,12.50
2022-12-22T09:31:44.185Z,12.85
2022-12-22T09:34:17.188Z,10.98
2022-12-22T09:36:50.195Z,11.02
2022-12-22T09:39:18.406Z,9.63
2022-12-22T09:41:57.889Z,9.70
2022-12-22T09:44:30.247Z,9.32
2022-12-22T09:47:00.699Z,8.00
2022-12-22T09:49:28.287Z,8.77
2022-12-22T09:51:58.876Z,7.20
2022-12-22T09:54:31.603Z,6.57
2022-12-22T09:57:01.461Z,6.18
2022-12-22T09:59:29.193Z,5.90
2022-12-22T10:02:07.516Z,5.70
2022-12-22T10:04:59.542Z,5.28
2022-12-22T10:10:31.461Z,6.03
2022-12-22T10:13:01.331Z,6.90
2022-12-22T10:15:39.448Z,6.95
2022-12-22T10:18:29.251Z,7.15
2022-12-22T10:21:04.308Z,8.18
2022-12-22T10:23:38.609Z,7.97
2022-12-22T10:26:28.838Z,7.10
2022-12-22T10:29:17.291Z,7.18
2022-12-22T10:31:58.268Z,6.10
2022-12-22T10:34:31.323Z,5.38
2022-12-22T10:37:06.068Z,6.03
2022-12-22T10:39:35.523Z,5.75
2022-12-22T10:42:13.738Z,5.25
2022-12-22T10:44:47.738Z,5.57
2022-12-22T10:47:24.641Z,6.00
2022-12-22T10:52:30.906Z,6.50
2022-12-22T10:55:29.369Z,9.35
2022-12-22T10:58:16.738Z,12.65
2022-12-22T11:00:45.165Z,12.73
2022-12-22T11:03:28.556Z,13.20
2022-12-22T11:05:57.744Z,15.10
2022-12-22T11:08:25.379Z,14.73
2022-12-22T11:11:06.916Z,14.00
2022-12-22T11:13:58.770Z,13.10
2022-12-22T11:16:40.504Z,13.07
2022-12-22T11:21:57.853Z,13.27
2022-12-22T11:24:59.631Z,14.38
2022-12-22T11:27:40.764Z,14.60
2022-12-22T11:30:17.353Z,13.88
2022-12-22T11:33:02.863Z,14.27
2022-12-22T11:35:44.157Z,15.93
2022-12-22T11:38:24.985Z,15.65
2022-12-22T11:41:04.543Z,13.90
2022-12-22T11:43:44.672Z,12.77
2022-12-22T11:46:30.989Z,11.80
2022-12-22T11:49:06.608Z,13.15
2022-12-22T11:52:03.769Z,13.98
2022-12-22T11:55:00.050Z,14.18
2022-12-22T11:57:44.623Z,15.00
2022-12-22T12:00:28.370Z,13.75
2022-12-22T12:03:45.476Z,17.17
2022-12-22T12:06:34.565Z,18.77
2022-12-22T12:09:16.690Z,18.65
2022-12-22T12:11:50.485Z,20.23
2022-12-22T12:14:37.762Z,20.10
2022-12-22T12:17:49.044Z,21.70
2022-12-22T12:20:34.696Z,21.73
2022-12-22T12:23:29.847Z,22.42
2022-12-22T12:26:14.762Z,23.45
2022-12-22T12:28:58.920Z,23.63
2022-12-22T12:31:32.560Z,23.10
2022-12-22T12:34:02.057Z,24.55
2022-12-22T12:36:49.724Z,24.45
2022-12-22T12:39:34.023Z,25.40
2022-12-22T12:42:25.639Z,27.40
2022-12-22T12:44:56.290Z,26.23
2022-12-22T12:47:34.636Z,26.55
2022-12-22T12:50:20.834Z,28.55
2022-12-22T12:52:52.720Z,27.45
2022-12-22T12:55:53.210Z,28.98
2022-12-22T12:58:35.455Z,28.63
2022-12-22T13:01:05.027Z,27.15
2022-12-22T13:04:01.671Z,29.20
2022-12-22T13:06:57.600Z,29.15
2022-12-22T13:09:50.099Z,28.88
2022-12-22T13:12:34.604Z,28.05
2022-12-22T13:15:01.888Z,27.88
2022-12-22T13:17:50.355Z,27.55
2022-12-22T13:20:24.476Z,28.83
2022-12-22T13:22:56.977Z,27.70
2022-12-22T13:25:27.128Z,27.08
2022-12-22T13:27:58.202Z,28.45
2022-12-22T13:30:28.419Z,26.48
2022-12-22T13:32:56.390Z,27.52
2022-12-22T13:35:32.428Z,27.02
2022-12-22T13:38:03.324Z,25.02
2022-12-22T13:40:39.397Z,25.85
2022-12-22T13:43:15.817Z,24.88
2022-12-22T13:45:49.092Z,24.20
2022-12-22T13:48:44.115Z,24.80
2022-12-22T13:51:23.543Z,23.38
2022-12-22T13:54:31.934Z,22.95
2022-12-22T13:57:01.540Z,22.58
2022-12-22T13:59:31.677Z,22.63
2022-12-22T14:02:20.343Z,23.20
2022-12-22T14:05:10.151Z,24.02
2022-12-22T14:07:37.327Z,25.13
2022-12-22T14:10:04.744Z,26.33
2022-12-22T14:12:39.018Z,27.70
2022-12-22T14:15:15.126Z,28.15
2022-12-22T14:17:46.191Z,28.98
2022-12-22T14:20:27.514Z,28.95
2022-12-22T14:23:00.160Z,29.27
2022-12-22T14:25:34.567Z,29.80
2022-12-22T14:28:02.455Z,29.85
2022-12-22T14:30:39.067Z,30.13
2022-12-22T14:33:28.635Z,30.33
2022-12-22T14:36:11.760Z,28.98
2022-12-22T14:38:41.132Z,30.58
2022-12-22T14:41:46.896Z,30.33
2022-12-22T14:44:22.547Z,29.83
2022-12-22T14:47:11.810Z,29.40
2022-12-22T14:49:51.552Z,29.08
2022-12-22T14:52:45.998Z,31.25
2022-12-22T14:55:44.092Z,30.30
2022-12-22T14:58:15.043Z,30.23
2022-12-22T15:00:43.954Z,30.98
2022-12-22T15:03:33.342Z,31.88
2022-12-22T15:06:24.719Z,29.48
2022-12-22T15:08:53.426Z,30.15
2022-12-22T15:11:24.053Z,33.28
2022-12-22T15:13:51.818Z,31.00
2022-12-22T15:16:21.604Z,30.23
2022-12-22T15:18:49.506Z,32.00
2022-12-22T15:21:20.566Z,32.90
2022-12-22T15:23:50.382Z,32.08
2022-12-22T15:26:19.681Z,30.65
2022-12-22T15:28:49.941Z,32.30
2022-12-22T15:31:17.639Z,31.58
2022-12-22T15:33:48.093Z,31.65
2022-12-22T15:36:17.553Z,31.45
2022-12-22T15:38:49.407Z,33.38
2022-12-22T15:41:16.174Z,29.63
2022-12-22T15:43:59.367Z,29.23
2022-12-22T15:46:28.761Z,37.38
2022-12-22T15:48:55.666Z,27.55
2022-12-22T15:51:28.279Z,30.55
2022-12-22T15:54:00.214Z,40.35
2022-12-22T15:56:34.193Z,33.45
2022-12-22T15:59:04.861Z,47.00
2022-12-22T16:01:31.668Z,75.07
2022-12-22T16:04:01.531Z,84.85
2022-12-22T16:06:31.518Z,29.52
2022-12-22T16:08:58.984Z,30.52
2022-12-22T16:11:25.631Z,30.27
2022-12-22T16:13:54.967Z,38.58
2022-12-22T16:16:24.618Z,28.50
2022-12-22T16:18:54.633Z,28.20
2022-12-22T16:21:30.968Z,30.25
2022-12-22T16:24:01.561Z,31.13
2022-12-22T16:26:28.579Z,30.80
2022-12-22T16:28:55.480Z,32.63
2022-12-22T16:31:24.553Z,32.05
2022-12-22T16:33:55.087Z,35.20
2022-12-22T16:36:24.876Z,30.15
2022-12-22T16:38:57.395Z,31.42
2022-12-22T16:41:27.526Z,29.30
2022-12-22T16:46:40.118Z,29.02
2022-12-22T16:49:09.148Z,28.95
2022-12-22T16:51:40.273Z,31.95
2022-12-22T16:54:07.370Z,28.80
2022-12-22T16:56:36.488Z,27.15
2022-12-22T16:59:04.599Z,29.92
2022-12-22T17:01:37.715Z,28.70
2022-12-22T17:04:12.172Z,29.02
2022-12-22T17:06:42.307Z,27.92
2022-12-22T17:09:15.996Z,25.90
2022-12-22T17:11:45.810Z,28.58
2022-12-22T17:14:34.820Z,25.25
2022-12-22T17:17:01.628Z,24.70
2022-12-22T17:19:33.285Z,24.92
2022-12-22T17:24:31.370Z,18.60
2022-12-22T17:27:06.161Z,20.38
2022-12-22T17:29:35.112Z,20.70
2022-12-22T17:32:07.650Z,18.35
2022-12-22T17:34:34.459Z,20.73
2022-12-22T17:37:03.622Z,21.52
2022-12-22T17:39:32.654Z,22.08
2022-12-22T17:42:17.524Z,22.60
2022-12-22T17:44:45.003Z,21.85
2022-12-22T17:47:30.512Z,22.50
2022-12-22T17:49:59.189Z,21.67
2022-12-22T17:52:28.429Z,23.67
2022-12-22T17:54:57.950Z,21.60
2022-12-22T17:57:29.724Z,22.35
2022-12-22T17:59:58.762Z,20.25
2022-12-22T18:02:29.481Z,19.88
2022-12-22T18:05:01.775Z,18.80
2022-12-22T18:07:28.646Z,20.00
2022-12-22T18:09:59.731Z,19.35
2022-12-22T18:12:27.145Z,19.70
2022-12-22T18:14:56.495Z,18.83
2022-12-22T18:17:35.119Z,17.90
2022-12-22T18:20:02.888Z,19.58
2022-12-22T18:22:32.483Z,20.35
2022-12-22T18:25:04.450Z,18.77
2022-12-22T18:27:31.312Z,19.60
2022-12-22T18:30:00.436Z,19.08
2022-12-22T18:32:29.294Z,18.23
2022-12-22T18:34:58.283Z,19.13
2022-12-22T18:37:27.645Z,19.17
2022-12-22T18:39:54.406Z,18.92
2022-12-22T18:42:23.060Z,18.95
2022-12-22T18:44:51.055Z,19.10
2022-12-22T18:47:20.399Z,19.02
2022-12-22T18:49:47.237Z,18.55
2022-12-22T18:52:23.293Z,18.98
2022-12-22T18:54:54.753Z,17.23
2022-12-22T18:57:23.959Z,17.38
2022-12-22T18:59:53.262Z,16.23
2022-12-22T19:02:29.620Z,15.35
2022-12-22T19:04:56.894Z,14.18
2022-12-22T19:07:25.548Z,14.50
2022-12-22T19:09:52.403Z,14.90
2022-12-22T19:12:23.098Z,14.45
2022-12-22T19:14:53.599Z,14.07
2022-12-22T19:17:26.238Z,13.45
2022-12-22T19:19:53.011Z,13.30
2022-12-22T19:22:22.291Z,13.07
2022-12-22T19:24:49.279Z,13.48
2022-12-22T19:27:22.065Z,12.68
2022-12-22T19:29:49.336Z,12.05
2022-12-22T19:32:31.237Z,10.98
2022-12-22T19:34:58.096Z,10.57
2022-12-22T19:37:25.058Z,10.07
2022-12-22T19:39:54.046Z,9.95
2022-12-22T19:42:27.195Z,9.82
2022-12-22T19:44:56.549Z,10.52
2022-12-22T19:47:24.868Z,9.52
2022-12-22T19:49:54.128Z,10.60
2022-12-22T19:52:22.970Z,9.73
2022-12-22T19:54:49.656Z,10.27
2022-12-22T19:57:21.521Z,10.32
2022-12-22T19:59:51.752Z,9.73
2022-12-22T20:02:31.192Z,8.93
2022-12-22T20:05:00.891Z,8.70
2022-12-22T20:07:29.808Z,8.70
2022-12-22T20:09:56.677Z,6.38
2022-12-22T20:12:42.347Z,5.30
2022-12-22T20:15:29.275Z,5.13
2022-12-22T20:18:00.361Z,2.40
2022-12-22T20:20:36.583Z,2.70
2022-12-22T20:23:24.961Z,2.30
2022-12-22T20:25:57.075Z,2.50
2022-12-22T20:28:28.102Z,2.75
2022-12-22T20:30:55.667Z,3.78
2022-12-22T20:33:26.675Z,4.40
2022-12-22T20:35:55.733Z,6.07
2022-12-22T20:38:32.841Z,6.85
2022-12-22T20:41:03.154Z,5.85
2022-12-22T20:43:31.431Z,6.53
2022-12-22T20:46:03.955Z,5.63
2022-12-22T20:48:43.858Z,6.60
2022-12-22T20:51:18.416Z,6.55
2022-12-22T20:53:48.798Z,6.10
2022-12-22T20:56:39.450Z,6.35
2022-12-22T20:59:22.675Z,6.22
2022-12-22T21:01:52.724Z,6.78
2022-12-22T21:04:19.768Z,7.72
2022-12-22T21:06:53.497Z,6.85
2022-12-22T21:09:23.089Z,8.05
2022-12-22T21:11:50.323Z,7.80
2022-12-22T21:14:17.131Z,7.28
2022-12-22T21:16:48.581Z,8.80
2022-12-22T21:19:19.834Z,6.97
2022-12-22T21:21:49.748Z,6.90
2022-12-22T21:24:18.810Z,7.07
2022-12-22T21:26:53.798Z,7.20
2022-12-22T21:29:23.587Z,7.38
2022-12-22T21:31:50.909Z,6.68
2022-12-22T21:34:18.089Z,7.63
2022-12-22T21:36:48.428Z,7.93
2022-12-22T21:39:30.151Z,9.32
2022-12-22T21:42:00.206Z,7.07
2022-12-22T21:44:29.361Z,7.55
2022-12-22T21:47:01.568Z,6.88
2022-12-22T21:49:31.090Z,5.93
2022-12-22T21:52:00.108Z,6.30
2022-12-22T21:54:29.120Z,5.93
2022-12-22T21:56:56.086Z,6.85
2022-12-22T21:59:25.896Z,5.85
2022-12-22T22:01:56.411Z,6.95
2022-12-22T22:04:25.960Z,7.25
2022-12-22T22:06:52.763Z,9.15
2022-12-22T22:09:21.734Z,10.25
2022-12-22T22:12:06.942Z,10.77
2022-12-22T22:14:33.966Z,14.20
2022-12-22T22:17:03.429Z,16.15
2022-12-22T22:19:30.128Z,14.90
2022-12-22T22:21:56.869Z,16.17
2022-12-22T22:24:28.801Z,16.05
2022-12-22T22:26:57.863Z,15.30
2022-12-22T22:29:26.948Z,16.30
2022-12-22T22:31:53.644Z,15.95
2022-12-22T22:34:20.440Z,16.25
2022-12-22T22:36:49.495Z,16.67
2022-12-22T22:39:18.374Z,16.75
2022-12-22T22:41:48.000Z,17.30
2022-12-22T22:44:17.472Z,18.30
2022-12-22T22:46:44.389Z,18.02
2022-12-22T22:49:11.093Z,16.67
2022-12-22T22:51:40.067Z,16.90
2022-12-22T22:54:06.869Z,17.08
2022-12-22T22:56:38.676Z,15.45
2022-12-22T22:59:05.618Z,15.25
2022-12-22T23:01:32.465Z,16.27
2022-12-22T23:03:59.386Z,16.33
2022-12-22T23:06:26.373Z,15.77
2022-12-22T23:08:54.202Z,15.18
2022-12-22T23:11:23.082Z,16.40
2022-12-22T23:13:49.874Z,16.88
2022-12-22T23:16:19.215Z,16.55
2022-12-22T23:18:48.389Z,16.40
2022-12-22T23:21:15.118Z,14.90
2022-12-22T23:23:41.985Z,17.45
2022-12-22T23:26:09.560Z,17.40
2022-12-22T23:28:38.650Z,18.95
2022-12-22T23:31:05.698Z,18.52
2022-12-22T23:33:34.684Z,20.52
2022-12-22T23:36:01.585Z,20.17
2022-12-22T23:38:28.437Z,19.90
2022-12-22T23:41:05.886Z,22.20
2022-12-22T23:43:33.312Z,25.58
2022-12-22T23:46:02.682Z,25.52
2022-12-22T23:48:32.225Z,24.55
2022-12-22T23:50:58.946Z,23.25
2022-12-22T23:53:25.713Z,24.25
2022-12-22T23:55:54.969Z,24.60
2022-12-22T23:58:25.545Z,23.00
